Time;durP1;ratioP1;P1;durP2;ratioP2;P2;SDS_P1;SDS_P2;PMS_P1;PMS_P2;Temp;Humidity;BMP_temperature;BMP_pressure;BME280_temperature;BME280_humidity;BME280_pressure;Samples;Min_cycle;Max_cycle;Signal;HPM_P1;HPM_P2
2021/07/15 00:02:12;;;;;;;10.45;8.90;;;;;;;;;;5074736;28;20031;-47
2021/07/15 00:04:38;;;;;;;12.05;9.75;;;;;;;;;;5073947;28;20484;-48
2021/07/15 00:07:04;;;;;;;10.93;9.85;;;;;;;;;;5074316;28;20035;-47
2021/07/15 00:09:30;;;;;;;11.57;8.77;;;;;;;;;;5074017;28;20076;-47
2021/07/15 00:11:56;;;;;;;10.70;8.68;;;;;;;;;;5076531;28;20522;-47
2021/07/15 00:14:23;;;;;;;10.23;9.07;;;;;;;;;;5074360;28;20048;-47
2021/07/15 00:16:53;;;;;;;11.25;9.55;;;;;;;;;;5074480;28;20403;-48
2021/07/15 00:19:19;;;;;;;10.35;9.00;;;;;;;;;;5074101;28;20033;-47
2021/07/15 00:21:45;;;;;;;14.02;8.65;;;;;;;;;;5071518;28;20033;-49
2021/07/15 00:24:11;;;;;;;10.23;9.15;;;;;;;;;;5074024;28;20115;-47
2021/07/15 00:26:37;;;;;;;12.20;9.60;;;;;;;;;;5071361;28;20493;-47
2021/07/15 00:29:04;;;;;;;10.65;9.55;;;;;;;;;;5073540;28;20111;-47
2021/07/15 00:31:30;;;;;;;12.63;10.05;;;;;;;;;;5072696;28;20082;-47
2021/07/15 00:33:56;;;;;;;11.93;9.85;;;;;;;;;;5074136;28;20107;-47
2021/07/15 00:36:22;;;;;;;11.45;10.23;;;;;;;;;;5067650;28;20147;-48
2021/07/15 00:38:48;;;;;;;11.68;9.93;;;;;;;;;;5073557;28;20021;-47
2021/07/15 00:41:14;;;;;;;12.35;10.48;;;;;;;;;;5073851;28;20095;-47
2021/07/15 00:43:40;;;;;;;12.52;9.85;;;;;;;;;;5073970;28;20107;-47
2021/07/15 00:46:06;;;;;;;11.30;10.10;;;;;;;;;;5073664;28;20481;-47
2021/07/15 00:48:32;;;;;;;11.23;10.07;;;;;;;;;;5073743;28;20089;-47
2021/07/15 00:50:58;;;;;;;10.48;9.23;;;;;;;;;;5072552;28;20024;-47
2021/07/15 00:53:25;;;;;;;11.32;10.13;;;;;;;;;;5073650;28;20040;-47
2021/07/15 00:55:51;;;;;;;12.32;10.45;;;;;;;;;;5072655;28;20086;-47
2021/07/15 00:58:17;;;;;;;10.43;9.15;;;;;;;;;;5073352;28;20537;-47
2021/07/15 01:00:45;;;;;;;11.48;9.63;;;;;;;;;;5073276;28;20499;-47
2021/07/15 01:03:11;;;;;;;10.18;9.18;;;;;;;;;;5073993;28;20036;-47
2021/07/15 01:05:39;;;;;;;10.30;8.88;;;;;;;;;;5073421;28;20033;-48
2021/07/15 01:08:05;;;;;;;12.77;10.00;;;;;;;;;;5072679;28;20063;-47
2021/07/15 01:10:34;;;;;;;11.32;9.30;;;;;;;;;;5074343;28;20024;-50
2021/07/15 01:13:12;;;;;;;11.77;8.60;;;;;;;;;;5074488;28;20688;-48
2021/07/15 01:15:43;;;;;;;11.00;9.30;;;;;;;;;;5073028;28;20021;-50
2021/07/15 01:18:28;;;;;;;9.80;8.80;;;;;;;;;;5072918;28;20021;-48
2021/07/15 01:20:59;;;;;;;11.05;8.95;;;;;;;;;;5072447;28;20460;-48
2021/07/15 01:23:39;;;;;;;11.13;7.97;;;;;;;;;;5071558;28;20026;-47
2021/07/15 01:26:10;;;;;;;11.30;8.13;;;;;;;;;;5073108;28;20082;-49
2021/07/15 01:28:54;;;;;;;10.38;8.38;;;;;;;;;;5072302;28;20028;-49
2021/07/15 01:31:21;;;;;;;9.05;7.72;;;;;;;;;;5072517;28;20029;-49
2021/07/15 01:33:48;;;;;;;8.70;7.80;;;;;;;;;;5073052;28;20025;-49
2021/07/15 01:36:18;;;;;;;8.25;6.70;;;;;;;;;;5066431;28;20446;-49
2021/07/15 01:38:48;;;;;;;8.25;7.25;;;;;;;;;;5072303;28;20029;-49
2021/07/15 01:41:16;;;;;;;11.77;8.30;;;;;;;;;;5074777;28;20107;-50
2021/07/15 01:43:43;;;;;;;8.35;7.03;;;;;;;;;;5071470;28;20082;-49
2021/07/15 01:46:10;;;;;;;8.77;7.88;;;;;;;;;;5071178;28;20056;-49
2021/07/15 01:48:37;;;;;;;8.52;7.40;;;;;;;;;;5061278;28;20033;-49
2021/07/15 01:51:03;;;;;;;8.45;7.57;;;;;;;;;;5071064;28;20024;-49
2021/07/15 01:53:29;;;;;;;8.90;7.97;;;;;;;;;;5073031;28;20108;-47
2021/07/15 01:55:56;;;;;;;8.77;7.50;;;;;;;;;;5070939;28;20071;-47
2021/07/15 01:58:23;;;;;;;11.85;7.50;;;;;;;;;;5070971;28;20056;-48
2021/07/15 02:00:49;;;;;;;8.68;7.40;;;;;;;;;;5072334;28;20035;-48
2021/07/15 02:03:16;;;;;;;9.05;6.75;;;;;;;;;;5072558;28;20103;-48
2021/07/15 02:05:42;;;;;;;7.88;7.07;;;;;;;;;;5072125;28;20111;-47
2021/07/15 02:08:09;;;;;;;8.23;7.20;;;;;;;;;;5071603;28;20109;-49
2021/07/15 02:10:36;;;;;;;8.25;7.45;;;;;;;;;;5070909;28;20028;-47
2021/07/15 02:13:03;;;;;;;9.20;7.80;;;;;;;;;;5073214;28;20067;-48
2021/07/15 02:15:29;;;;;;;8.23;6.97;;;;;;;;;;5072221;28;20050;-47
2021/07/15 02:17:56;;;;;;;8.75;7.07;;;;;;;;;;5071100;28;20031;-47
2021/07/15 02:20:22;;;;;;;7.03;6.30;;;;;;;;;;5072086;28;20020;-47
2021/07/15 02:22:49;;;;;;;7.55;6.35;;;;;;;;;;5070555;28;20101;-47
2021/07/15 02:25:16;;;;;;;11.55;7.18;;;;;;;;;;5071969;28;20119;-47
2021/07/15 02:27:43;;;;;;;7.85;7.05;;;;;;;;;;5071975;28;20460;-47
2021/07/15 02:30:10;;;;;;;7.32;6.13;;;;;;;;;;5072220;28;20376;-47
2021/07/15 02:32:37;;;;;;;8.38;6.60;;;;;;;;;;5071985;28;20035;-48
2021/07/15 02:35:05;;;;;;;7.47;6.68;;;;;;;;;;5060687;28;20032;-47
2021/07/15 02:37:33;;;;;;;8.95;7.03;;;;;;;;;;5066212;28;20025;-47
2021/07/15 02:39:59;;;;;;;7.47;6.68;;;;;;;;;;5071686;28;20056;-47
2021/07/15 02:42:26;;;;;;;9.48;6.30;;;;;;;;;;5071977;28;20104;-47
2021/07/15 02:44:52;;;;;;;7.97;6.15;;;;;;;;;;5071937;28;20028;-47
2021/07/15 02:47:18;;;;;;;8.80;6.25;;;;;;;;;;5071941;28;20028;-47
2021/07/15 02:49:45;;;;;;;8.60;6.25;;;;;;;;;;5071227;28;20111;-47
2021/07/15 02:52:11;;;;;;;9.80;6.50;;;;;;;;;;5075410;28;20032;-47
2021/07/15 02:54:39;;;;;;;7.18;5.88;;;;;;;;;;5076025;28;20025;-47
2021/07/15 02:57:12;;;;;;;7.53;6.40;;;;;;;;;;5075967;28;20024;-47
2021/07/15 02:59:43;;;;;;;6.72;5.93;;;;;;;;;;5075650;28;20154;-47
2021/07/15 03:02:27;;;;;;;8.32;5.68;;;;;;;;;;5075917;28;20341;-48
2021/07/15 03:05:00;;;;;;;7.40;5.18;;;;;;;;;;5075643;28;20132;-47
2021/07/15 03:07:28;;;;;;;7.85;5.43;;;;;;;;;;5073888;28;20029;-47
2021/07/15 03:09:55;;;;;;;7.43;5.65;;;;;;;;;;5075522;28;20634;-47
2021/07/15 03:12:24;;;;;;;7.03;5.30;;;;;;;;;;5077521;28;20028;-47
2021/07/15 03:14:52;;;;;;;7.75;5.30;;;;;;;;;;5075420;28;20099;-47
2021/07/15 03:17:23;;;;;;;7.68;5.22;;;;;;;;;;5073427;28;20086;-47
2021/07/15 03:19:50;;;;;;;6.50;4.85;;;;;;;;;;5069214;28;20021;-47
2021/07/15 03:22:17;;;;;;;5.53;4.55;;;;;;;;;;5073993;28;20202;-50
2021/07/15 03:24:46;;;;;;;5.45;4.63;;;;;;;;;;5075584;28;20119;-47
2021/07/15 03:27:12;;;;;;;5.68;4.78;;;;;;;;;;5075453;28;20095;-50
2021/07/15 03:29:39;;;;;;;5.55;5.00;;;;;;;;;;5074654;28;20029;-47
2021/07/15 03:32:05;;;;;;;11.30;5.05;;;;;;;;;;5075295;28;20122;-47
2021/07/15 03:34:33;;;;;;;7.15;5.20;;;;;;;;;;5075283;28;20027;-49
2021/07/15 03:36:59;;;;;;;6.75;4.57;;;;;;;;;;5069537;28;20051;-48
2021/07/15 03:39:25;;;;;;;6.93;5.03;;;;;;;;;;5074415;28;20431;-49
2021/07/15 03:41:51;;;;;;;4.70;4.20;;;;;;;;;;5074977;28;20108;-50
2021/07/15 03:44:18;;;;;;;7.82;5.00;;;;;;;;;;5073149;28;20135;-52
2021/07/15 03:46:45;;;;;;;5.20;4.25;;;;;;;;;;5075130;28;20060;-47
2021/07/15 03:49:11;;;;;;;7.38;4.68;;;;;;;;;;5073968;28;20055;-47
2021/07/15 03:51:41;;;;;;;5.35;4.63;;;;;;;;;;5074382;28;20040;-47
2021/07/15 03:54:07;;;;;;;4.95;4.20;;;;;;;;;;5073534;28;20067;-47
2021/07/15 03:56:34;;;;;;;4.95;4.22;;;;;;;;;;5073150;28;20055;-48
2021/07/15 03:59:01;;;;;;;5.65;4.38;;;;;;;;;;5073631;28;20103;-48
2021/07/15 04:01:34;;;;;;;6.78;4.68;;;;;;;;;;5075035;28;20039;-48
2021/07/15 04:04:01;;;;;;;4.43;4.00;;;;;;;;;;5074754;28;20119;-47
2021/07/15 04:06:27;;;;;;;4.43;4.00;;;;;;;;;;5074534;28;20025;-47
2021/07/15 04:08:54;;;;;;;6.25;4.15;;;;;;;;;;5072710;28;20198;-47
2021/07/15 04:11:23;;;;;;;3.90;3.50;;;;;;;;;;5075149;28;22342;-47
2021/07/15 04:13:52;;;;;;;5.43;4.35;;;;;;;;;;5072981;28;20476;-47
2021/07/15 04:16:37;;;;;;;4.82;4.13;;;;;;;;;;5074567;28;20495;-47
2021/07/15 04:19:05;;;;;;;6.53;4.38;;;;;;;;;;5073452;28;20044;-47
2021/07/15 04:21:31;;;;;;;4.60;4.05;;;;;;;;;;5073051;28;20100;-47
2021/07/15 04:23:58;;;;;;;5.13;4.15;;;;;;;;;;5073501;28;20089;-47
2021/07/15 04:26:24;;;;;;;4.80;4.20;;;;;;;;;;5074258;28;20029;-47
2021/07/15 04:28:50;;;;;;;6.38;4.50;;;;;;;;;;5073719;28;20420;-47
2021/07/15 04:31:20;;;;;;;6.93;4.30;;;;;;;;;;5074168;28;20107;-48
2021/07/15 04:33:47;;;;;;;7.28;4.25;;;;;;;;;;5073592;28;20043;-47
2021/07/15 04:36:13;;;;;;;3.88;3.47;;;;;;;;;;5066972;28;20028;-47
2021/07/15 04:38:40;;;;;;;5.28;4.35;;;;;;;;;;5074475;28;20115;-47
2021/07/15 04:41:06;;;;;;;4.90;3.55;;;;;;;;;;5073124;28;20074;-47
2021/07/15 04:43:33;;;;;;;6.55;4.20;;;;;;;;;;5074133;28;20025;-47
2021/07/15 04:46:00;;;;;;;6.95;4.30;;;;;;;;;;5074092;28;20398;-48
2021/07/15 04:48:26;;;;;;;8.30;3.67;;;;;;;;;;5073758;28;20082;-47
2021/07/15 04:50:52;;;;;;;6.60;3.35;;;;;;;;;;5073523;28;20027;-47
2021/07/15 04:53:23;;;;;;;5.55;4.00;;;;;;;;;;5073871;28;20024;-47
2021/07/15 04:55:51;;;;;;;4.18;3.67;;;;;;;;;;5073675;28;20073;-47
2021/07/15 04:58:17;;;;;;;7.10;4.53;;;;;;;;;;5073293;28;20032;-49
2021/07/15 05:00:46;;;;;;;5.90;3.85;;;;;;;;;;5073633;28;20103;-47
2021/07/15 05:03:22;;;;;;;6.38;3.45;;;;;;;;;;5073609;28;20376;-47
2021/07/15 05:05:48;;;;;;;3.25;2.95;;;;;;;;;;5073129;28;20068;-48
2021/07/15 05:08:14;;;;;;;6.60;3.67;;;;;;;;;;5072584;28;20050;-48
2021/07/15 05:10:40;;;;;;;5.60;3.78;;;;;;;;;;5072554;28;20029;-48
2021/07/15 05:13:06;;;;;;;4.38;3.97;;;;;;;;;;5074013;28;20081;-49
2021/07/15 05:15:32;;;;;;;4.00;3.55;;;;;;;;;;5073247;28;20024;-47
2021/07/15 05:17:58;;;;;;;7.45;3.75;;;;;;;;;;5071940;28;20120;-49
2021/07/15 05:20:26;;;;;;;4.90;3.97;;;;;;;;;;5073073;28;20027;-49
2021/07/15 05:22:52;;;;;;;4.25;3.40;;;;;;;;;;5071616;28;20028;-51
2021/07/15 05:25:18;;;;;;;4.35;3.33;;;;;;;;;;5073008;28;20036;-47
2021/07/15 05:27:44;;;;;;;3.95;3.30;;;;;;;;;;5072626;28;20525;-47
2021/07/15 05:30:13;;;;;;;3.60;3.00;;;;;;;;;;5072188;28;20071;-47
2021/07/15 05:32:45;;;;;;;4.10;3.45;;;;;;;;;;5072647;28;20158;-49
2021/07/15 05:35:11;;;;;;;5.32;4.30;;;;;;;;;;5071417;28;20679;-47
2021/07/15 05:37:38;;;;;;;4.80;4.00;;;;;;;;;;5066663;28;20111;-48
2021/07/15 05:40:05;;;;;;;4.20;3.47;;;;;;;;;;5072516;28;20024;-47
2021/07/15 05:42:31;;;;;;;4.95;3.75;;;;;;;;;;5071283;28;20029;-47
2021/07/15 05:44:57;;;;;;;6.30;3.55;;;;;;;;;;5072452;28;20388;-49
2021/07/15 05:47:23;;;;;;;5.57;3.85;;;;;;;;;;5072709;28;20484;-49
2021/07/15 05:49:49;;;;;;;4.72;3.30;;;;;;;;;;5072438;28;20118;-47
2021/07/15 05:52:15;;;;;;;4.32;3.50;;;;;;;;;;5072176;28;20043;-47
2021/07/15 05:54:41;;;;;;;4.63;3.42;;;;;;;;;;5071163;28;20020;-49
2021/07/15 05:57:07;;;;;;;3.72;2.80;;;;;;;;;;5072335;28;20021;-49
2021/07/15 05:59:34;;;;;;;5.03;3.03;;;;;;;;;;5071937;28;20483;-47
2021/07/15 06:02:00;;;;;;;3.42;2.90;;;;;;;;;;5071517;28;20020;-48
2021/07/15 06:04:26;;;;;;;4.63;2.92;;;;;;;;;;5072648;28;20035;-47
2021/07/15 06:06:53;;;;;;;3.45;2.80;;;;;;;;;;5072321;28;20461;-48
2021/07/15 06:09:19;;;;;;;4.05;3.30;;;;;;;;;;5071856;28;20094;-47
2021/07/15 06:11:45;;;;;;;3.00;2.45;;;;;;;;;;5073292;28;20405;-47
2021/07/15 06:14:12;;;;;;;3.33;2.92;;;;;;;;;;5072882;28;20073;-47
2021/07/15 06:16:38;;;;;;;8.90;3.13;;;;;;;;;;5070334;28;20074;-49
2021/07/15 06:19:04;;;;;;;5.43;2.58;;;;;;;;;;5071833;28;20086;-48
2021/07/15 06:21:30;;;;;;;3.75;2.38;;;;;;;;;;5071130;28;20056;-47
2021/07/15 06:23:56;;;;;;;2.72;2.08;;;;;;;;;;5070824;28;20024;-47
2021/07/15 06:26:22;;;;;;;2.85;2.35;;;;;;;;;;5071310;28;20028;-47
2021/07/15 06:28:48;;;;;;;3.58;2.38;;;;;;;;;;5071390;28;20025;-47
2021/07/15 06:31:15;;;;;;;3.00;2.10;;;;;;;;;;5072155;28;20103;-47
2021/07/15 06:33:41;;;;;;;2.92;1.92;;;;;;;;;;5072165;28;20024;-48
2021/07/15 06:36:07;;;;;;;2.53;1.73;;;;;;;;;;5066122;28;20017;-47
2021/07/15 06:38:37;;;;;;;2.55;1.80;;;;;;;;;;5071568;28;20107;-48
2021/07/15 06:41:07;;;;;;;4.72;2.05;;;;;;;;;;5072040;28;20027;-48
2021/07/15 06:43:33;;;;;;;2.22;1.55;;;;;;;;;;5071999;28;20624;-48
2021/07/15 06:45:59;;;;;;;1.70;1.52;;;;;;;;;;5071426;28;20029;-48
2021/07/15 06:48:25;;;;;;;4.32;1.55;;;;;;;;;;5061634;28;20103;-48
2021/07/15 06:50:51;;;;;;;3.15;1.80;;;;;;;;;;5071917;28;20482;-48
2021/07/15 06:53:17;;;;;;;2.67;1.67;;;;;;;;;;5072040;28;20078;-47
2021/07/15 06:55:43;;;;;;;3.97;2.03;;;;;;;;;;5071664;28;20115;-47
2021/07/15 06:58:10;;;;;;;2.08;1.40;;;;;;;;;;5070791;28;20456;-47
2021/07/15 07:00:36;;;;;;;2.08;1.60;;;;;;;;;;5070341;28;20086;-47
2021/07/15 07:03:02;;;;;;;4.05;1.70;;;;;;;;;;5071785;28;20134;-47
2021/07/15 07:05:28;;;;;;;3.63;1.80;;;;;;;;;;5071683;28;20143;-47
2021/07/15 07:07:54;;;;;;;2.67;1.60;;;;;;;;;;5071472;28;20032;-47
2021/07/15 07:10:21;;;;;;;5.53;1.33;;;;;;;;;;5072322;28;20033;-47
2021/07/15 07:12:47;;;;;;;1.70;1.38;;;;;;;;;;5073070;28;20103;-47
2021/07/15 07:15:15;;;;;;;3.38;1.73;;;;;;;;;;5071288;28;20021;-49
2021/07/15 07:17:41;;;;;;;2.97;1.42;;;;;;;;;;5071179;28;20103;-48
2021/07/15 07:20:07;;;;;;;5.53;2.22;;;;;;;;;;5071671;28;20107;-47
2021/07/15 07:22:34;;;;;;;2.55;1.45;;;;;;;;;;5070122;28;20081;-50
2021/07/15 07:25:00;;;;;;;2.13;1.50;;;;;;;;;;5071449;28;20025;-48
2021/07/15 07:27:27;;;;;;;4.15;1.52;;;;;;;;;;5071604;28;20036;-47
2021/07/15 07:29:53;;;;;;;2.08;1.42;;;;;;;;;;5069833;28;20119;-49
2021/07/15 07:32:19;;;;;;;4.68;1.27;;;;;;;;;;5070493;28;20039;-47
2021/07/15 07:34:45;;;;;;;1.65;1.15;;;;;;;;;;5071354;28;20421;-47
2021/07/15 07:37:11;;;;;;;1.65;1.15;;;;;;;;;;5067029;28;20028;-48
2021/07/15 07:39:37;;;;;;;1.70;1.20;;;;;;;;;;5074723;28;20107;-50
2021/07/15 07:42:03;;;;;;;1.08;0.90;;;;;;;;;;5075181;28;20043;-51
2021/07/15 07:44:29;;;;;;;1.85;1.10;;;;;;;;;;5075089;28;20511;-47
2021/07/15 07:46:55;;;;;;;7.30;1.20;;;;;;;;;;5074839;28;20059;-47
2021/07/15 07:49:21;;;;;;;2.60;1.27;;;;;;;;;;5074623;28;20499;-48
2021/07/15 07:51:47;;;;;;;3.78;0.98;;;;;;;;;;5074824;28;20056;-49
2021/07/15 07:54:13;;;;;;;1.00;0.80;;;;;;;;;;5074870;28;20516;-47
2021/07/15 07:56:39;;;;;;;1.95;1.13;;;;;;;;;;5074866;28;20024;-47
2021/07/15 07:59:05;;;;;;;3.10;1.10;;;;;;;;;;5074632;28;20095;-48
2021/07/15 08:01:31;;;;;;;0.98;0.57;;;;;;;;;;5074683;28;20479;-47
2021/07/15 08:03:57;;;;;;;3.55;1.10;;;;;;;;;;5074600;28;20040;-47
2021/07/15 08:06:24;;;;;;;1.50;0.70;;;;;;;;;;5074681;28;20029;-48
2021/07/15 08:08:51;;;;;;;1.35;0.77;;;;;;;;;;5074048;28;20048;-47
2021/07/15 08:11:17;;;;;;;1.50;0.60;;;;;;;;;;5075649;28;20021;-47
2021/07/15 08:13:43;;;;;;;1.00;0.57;;;;;;;;;;5074354;28;20023;-49
2021/07/15 08:16:09;;;;;;;1.65;0.93;;;;;;;;;;5073820;28;20023;-50
2021/07/15 08:18:35;;;;;;;5.75;0.80;;;;;;;;;;5073782;28;20020;-47
2021/07/15 08:21:01;;;;;;;1.45;0.80;;;;;;;;;;5074578;28;20090;-50
2021/07/15 08:23:27;;;;;;;1.27;0.77;;;;;;;;;;5071844;28;20452;-48
2021/07/15 08:25:53;;;;;;;1.63;0.80;;;;;;;;;;5074291;28;20039;-51
2021/07/15 08:28:19;;;;;;;1.75;0.70;;;;;;;;;;5074021;28;20115;-49
2021/07/15 08:30:45;;;;;;;1.00;0.70;;;;;;;;;;5074408;28;20419;-47
2021/07/15 08:33:11;;;;;;;1.35;0.75;;;;;;;;;;5074096;28;20039;-48
2021/07/15 08:35:37;;;;;;;1.20;0.90;;;;;;;;;;5070842;28;20424;-49
2021/07/15 08:38:04;;;;;;;2.95;0.80;;;;;;;;;;5071719;28;20037;-47
2021/07/15 08:40:30;;;;;;;1.73;1.10;;;;;;;;;;5074352;28;20036;-48
2021/07/15 08:42:56;;;;;;;1.42;0.95;;;;;;;;;;5074015;28;20086;-48
2021/07/15 08:45:23;;;;;;;1.92;1.00;;;;;;;;;;5074179;28;20028;-47
2021/07/15 08:47:50;;;;;;;2.85;1.00;;;;;;;;;;5072486;28;20043;-48
2021/07/15 08:50:16;;;;;;;1.88;1.15;;;;;;;;;;5073814;28;20036;-48
2021/07/15 08:52:43;;;;;;;1.85;0.95;;;;;;;;;;5073526;28;20029;-48
2021/07/15 08:57:35;;;;;;;3.22;1.08;;;;;;;;;;5073292;28;20032;-53
2021/07/15 09:00:01;;;;;;;1.67;1.20;;;;;;;;;;5073407;28;20061;-49
2021/07/15 09:02:27;;;;;;;1.17;0.80;;;;;;;;;;5073308;28;20384;-48
2021/07/15 09:04:53;;;;;;;1.75;0.88;;;;;;;;;;5073804;28;20099;-50
2021/07/15 09:07:19;;;;;;;3.05;0.93;;;;;;;;;;5073823;28;20047;-52
2021/07/15 09:09:46;;;;;;;2.53;1.10;;;;;;;;;;5073173;28;20044;-50
2021/07/15 09:12:13;;;;;;;2.00;0.95;;;;;;;;;;5073788;28;20058;-47
2021/07/15 09:14:53;;;;;;;3.13;0.93;;;;;;;;;;5073389;28;20091;-48
2021/07/15 09:17:31;;;;;;;0.90;0.70;;;;;;;;;;5070993;28;20111;-47
2021/07/15 09:19:58;;;;;;;2.90;0.90;;;;;;;;;;5073528;28;20025;-48
2021/07/15 09:22:24;;;;;;;2.35;0.70;;;;;;;;;;5070387;28;20035;-49
2021/07/15 09:24:53;;;;;;;1.52;0.90;;;;;;;;;;5073238;28;20479;-47
2021/07/15 09:27:21;;;;;;;4.15;0.90;;;;;;;;;;5073297;28;20456;-49
2021/07/15 09:30:04;;;;;;;1.85;1.02;;;;;;;;;;5072803;28;20148;-47
2021/07/15 09:32:30;;;;;;;4.33;1.17;;;;;;;;;;5072795;28;20523;-49
2021/07/15 09:35:04;;;;;;;3.15;0.88;;;;;;;;;;5072949;28;20266;-47
2021/07/15 09:37:33;;;;;;;1.65;0.80;;;;;;;;;;5066556;28;20376;-47
2021/07/15 09:39:58;;;;;;;1.92;0.95;;;;;;;;;;5072395;28;20024;-48
2021/07/15 09:42:25;;;;;;;0.95;0.73;;;;;;;;;;5072851;28;20029;-47
2021/07/15 09:44:52;;;;;;;1.15;0.82;;;;;;;;;;5072843;28;20024;-50
2021/07/15 09:47:35;;;;;;;1.42;0.90;;;;;;;;;;5072678;28;20052;-53
2021/07/15 09:50:03;;;;;;;0.65;0.63;;;;;;;;;;5072652;28;20025;-50
2021/07/15 09:52:29;;;;;;;2.15;0.82;;;;;;;;;;5072532;28;20024;-48
2021/07/15 09:55:15;;;;;;;2.28;0.90;;;;;;;;;;5072828;28;20490;-47
2021/07/15 09:57:41;;;;;;;1.77;0.90;;;;;;;;;;5069709;28;20024;-49
2021/07/15 10:00:07;;;;;;;1.75;1.27;;;;;;;;;;5072303;28;20023;-49
2021/07/15 10:02:33;;;;;;;2.22;0.90;;;;;;;;;;5071337;28;20460;-47
2021/07/15 10:04:59;;;;;;;2.83;1.00;;;;;;;;;;5072306;28;20029;-48
2021/07/15 10:07:26;;;;;;;1.35;0.90;;;;;;;;;;5072498;28;20115;-47
2021/07/15 10:10:11;;;;;;;1.52;0.90;;;;;;;;;;5071928;28;20055;-49
2021/07/15 10:12:37;;;;;;;1.27;0.90;;;;;;;;;;5063556;28;20028;-48
2021/07/15 10:15:09;;;;;;;1.85;1.10;;;;;;;;;;5071908;28;20031;-48
2021/07/15 10:17:39;;;;;;;1.88;0.77;;;;;;;;;;5071889;28;20107;-48
2021/07/15 10:20:15;;;;;;;1.08;0.77;;;;;;;;;;5072322;28;20024;-48
2021/07/15 10:22:41;;;;;;;4.80;1.20;;;;;;;;;;5070647;28;20535;-48
2021/07/15 10:25:09;;;;;;;4.28;0.70;;;;;;;;;;5072105;28;20418;-47
2021/07/15 10:27:36;;;;;;;4.40;0.70;;;;;;;;;;5072048;28;20506;-47
2021/07/15 10:30:03;;;;;;;3.15;0.80;;;;;;;;;;5071340;28;20025;-47
2021/07/15 10:32:33;;;;;;;2.17;0.75;;;;;;;;;;5072327;28;20456;-48
2021/07/15 10:34:59;;;;;;;1.92;1.05;;;;;;;;;;5071774;28;20024;-48
2021/07/15 10:37:25;;;;;;;1.33;1.00;;;;;;;;;;5066674;28;20024;-47
2021/07/15 10:39:52;;;;;;;2.45;0.90;;;;;;;;;;5071484;28;20031;-48
2021/07/15 10:42:18;;;;;;;3.03;0.80;;;;;;;;;;5072265;28;20024;-48
2021/07/15 10:44:46;;;;;;;0.73;0.57;;;;;;;;;;5071785;28;20061;-49
2021/07/15 10:47:13;;;;;;;0.85;0.65;;;;;;;;;;5072222;28;20029;-48
2021/07/15 10:49:41;;;;;;;3.00;1.13;;;;;;;;;;5071587;28;20086;-48
2021/07/15 10:52:08;;;;;;;0.77;0.70;;;;;;;;;;5071984;28;20561;-48
2021/07/15 10:54:34;;;;;;;0.90;0.80;;;;;;;;;;5071926;28;20464;-48
2021/07/15 10:57:00;;;;;;;0.90;0.70;;;;;;;;;;5071994;28;20108;-48
2021/07/15 10:59:27;;;;;;;2.08;0.82;;;;;;;;;;5071579;28;20099;-53
2021/07/15 11:01:54;;;;;;;0.90;0.60;;;;;;;;;;5071725;28;20039;-47
2021/07/15 11:04:22;;;;;;;1.50;0.80;;;;;;;;;;5071754;28;20070;-48
2021/07/15 11:06:49;;;;;;;0.70;0.60;;;;;;;;;;5071725;28;20031;-49
2021/07/15 11:09:36;;;;;;;7.72;1.00;;;;;;;;;;5070955;28;20369;-48
2021/07/15 11:12:03;;;;;;;0.60;0.50;;;;;;;;;;5075715;28;20024;-48
2021/07/15 11:14:46;;;;;;;2.33;0.88;;;;;;;;;;5074952;28;20028;-48
2021/07/15 11:17:21;;;;;;;1.45;0.85;;;;;;;;;;5075713;28;20021;-48
2021/07/15 11:19:55;;;;;;;1.90;0.85;;;;;;;;;;5075069;28;20042;-48
2021/07/15 11:22:36;;;;;;;2.00;1.10;;;;;;;;;;5073183;28;20495;-49
2021/07/15 11:25:06;;;;;;;0.95;0.60;;;;;;;;;;5075363;28;20020;-54
2021/07/15 11:27:34;;;;;;;1.02;0.88;;;;;;;;;;5075492;28;20090;-48
2021/07/15 11:30:00;;;;;;;2.75;0.85;;;;;;;;;;5075179;28;20035;-49
2021/07/15 11:32:27;;;;;;;0.73;0.60;;;;;;;;;;5075604;28;20025;-49
2021/07/15 11:34:55;;;;;;;1.15;0.80;;;;;;;;;;5075197;28;20032;-48
2021/07/15 11:37:32;;;;;;;1.10;0.93;;;;;;;;;;5070307;28;20544;-51
2021/07/15 11:39:58;;;;;;;2.58;0.80;;;;;;;;;;5072977;28;20094;-51
2021/07/15 11:42:26;;;;;;;1.05;0.77;;;;;;;;;;5075108;28;20449;-49
2021/07/15 11:45:05;;;;;;;1.17;0.60;;;;;;;;;;5075417;28;20384;-49
2021/07/15 11:47:43;;;;;;;1.55;0.88;;;;;;;;;;5075052;28;20039;-49
2021/07/15 11:50:28;;;;;;;3.53;0.90;;;;;;;;;;5075292;28;20051;-49
2021/07/15 11:53:12;;;;;;;3.95;1.17;;;;;;;;;;5072749;28;20051;-51
2021/07/15 11:55:38;;;;;;;1.40;0.80;;;;;;;;;;5074782;28;20033;-48
2021/07/15 11:58:04;;;;;;;2.00;0.90;;;;;;;;;;5074610;28;20025;-53
2021/07/15 12:00:30;;;;;;;4.22;0.73;;;;;;;;;;5074003;28;20096;-48
2021/07/15 12:02:58;;;;;;;1.38;0.93;;;;;;;;;;5074921;28;20115;-48
2021/07/15 12:05:28;;;;;;;0.98;0.65;;;;;;;;;;5074765;28;20024;-49
2021/07/15 12:08:05;;;;;;;1.35;0.90;;;;;;;;;;5074388;28;20021;-48
2021/07/15 12:10:35;;;;;;;1.70;0.80;;;;;;;;;;5075602;28;20052;-51
2021/07/15 12:13:02;;;;;;;1.45;0.80;;;;;;;;;;5078024;28;20082;-48
2021/07/15 12:15:29;;;;;;;1.65;0.85;;;;;;;;;;5074371;28;20107;-47
2021/07/15 12:17:59;;;;;;;3.20;0.65;;;;;;;;;;5073896;28;20423;-48
2021/07/15 12:20:36;;;;;;;2.45;1.13;;;;;;;;;;5074762;28;20457;-48
2021/07/15 12:23:02;;;;;;;2.55;0.98;;;;;;;;;;5070688;28;20082;-47
2021/07/15 12:25:30;;;;;;;3.53;0.85;;;;;;;;;;5074860;28;20423;-48
2021/07/15 12:27:58;;;;;;;1.48;0.80;;;;;;;;;;5074584;28;20115;-48
2021/07/15 12:30:37;;;;;;;1.52;0.80;;;;;;;;;;5074251;28;20595;-47
2021/07/15 12:33:03;;;;;;;3.00;1.08;;;;;;;;;;5075102;28;20597;-48
2021/07/15 12:35:32;;;;;;;0.85;0.73;;;;;;;;;;5072049;28;20029;-47
2021/07/15 12:37:58;;;;;;;1.27;0.90;;;;;;;;;;5070401;28;20103;-48
2021/07/15 12:40:28;;;;;;;1.67;0.98;;;;;;;;;;5074260;28;20027;-47
2021/07/15 12:43:09;;;;;;;1.00;0.77;;;;;;;;;;5073646;28;20361;-48
2021/07/15 12:45:35;;;;;;;2.17;1.10;;;;;;;;;;5067332;28;20405;-48
2021/07/15 12:48:04;;;;;;;1.15;0.82;;;;;;;;;;5073371;28;20043;-48
2021/07/15 12:50:30;;;;;;;6.60;0.88;;;;;;;;;;5074383;28;20029;-51
2021/07/15 12:53:08;;;;;;;0.82;0.73;;;;;;;;;;5073691;28;20525;-48
2021/07/15 12:55:34;;;;;;;4.70;0.98;;;;;;;;;;5073667;28;20037;-50
2021/07/15 12:58:00;;;;;;;1.92;1.05;;;;;;;;;;5073525;28;20028;-54
2021/07/15 13:00:31;;;;;;;1.20;0.75;;;;;;;;;;5073854;28;20021;-49
2021/07/15 13:02:57;;;;;;;3.53;1.00;;;;;;;;;;5073835;28;20115;-52
2021/07/15 13:05:23;;;;;;;3.17;0.80;;;;;;;;;;5073800;28;20025;-54
2021/07/15 13:07:49;;;;;;;1.55;0.90;;;;;;;;;;5071435;28;20496;-48
2021/07/15 13:10:22;;;;;;;1.38;1.00;;;;;;;;;;5074694;28;20043;-48
2021/07/15 13:15:33;;;;;;;5.65;1.15;;;;;;;;;;5073697;28;20039;-49
2021/07/15 13:18:09;;;;;;;1.05;0.82;;;;;;;;;;5073017;28;20025;-48
2021/07/15 13:20:40;;;;;;;2.85;1.13;;;;;;;;;;5071601;28;20032;-48
2021/07/15 13:23:06;;;;;;;0.82;0.82;;;;;;;;;;5071022;28;20021;-47
2021/07/15 13:25:32;;;;;;;4.10;0.77;;;;;;;;;;5073360;28;20017;-48
2021/07/15 13:28:09;;;;;;;1.25;0.60;;;;;;;;;;5072095;28;20136;-48
2021/07/15 13:30:37;;;;;;;0.70;0.60;;;;;;;;;;5073133;28;20024;-48
2021/07/15 13:33:13;;;;;;;3.47;0.73;;;;;;;;;;5072678;28;20028;-48
2021/07/15 13:35:40;;;;;;;0.88;0.65;;;;;;;;;;5068901;28;20029;-49
2021/07/15 13:38:07;;;;;;;3.38;0.60;;;;;;;;;;5071369;28;20380;-48
2021/07/15 13:40:37;;;;;;;0.93;0.40;;;;;;;;;;5072979;28;20032;-49
2021/07/15 13:43:05;;;;;;;1.08;0.68;;;;;;;;;;5072143;28;20093;-48
2021/07/15 13:45:31;;;;;;;1.42;0.68;;;;;;;;;;5072096;28;20028;-50
2021/07/15 13:47:57;;;;;;;3.95;0.68;;;;;;;;;;5070934;28;20587;-48
2021/07/15 13:50:25;;;;;;;0.85;0.45;;;;;;;;;;5072725;28;20024;-52
2021/07/15 13:53:01;;;;;;;0.70;0.40;;;;;;;;;;5071142;28;20028;-52
2021/07/15 13:55:27;;;;;;;2.45;0.30;;;;;;;;;;5072528;28;20024;-49
2021/07/15 13:57:54;;;;;;;1.17;0.50;;;;;;;;;;5072169;28;20097;-49
2021/07/15 14:00:24;;;;;;;1.25;0.57;;;;;;;;;;5072189;28;20424;-50
2021/07/15 14:02:57;;;;;;;0.50;0.40;;;;;;;;;;5071987;28;20036;-48
2021/07/15 14:05:26;;;;;;;2.80;0.73;;;;;;;;;;5072521;28;20060;-48
2021/07/15 14:07:52;;;;;;;1.60;0.50;;;;;;;;;;5071760;28;20028;-49
2021/07/15 14:10:18;;;;;;;0.93;0.60;;;;;;;;;;5073118;28;20122;-48
2021/07/15 14:12:45;;;;;;;1.00;0.80;;;;;;;;;;5072433;28;20024;-49
2021/07/15 14:15:19;;;;;;;1.48;0.70;;;;;;;;;;5071936;28;20062;-48
2021/07/15 14:18:00;;;;;;;1.02;0.47;;;;;;;;;;5071999;28;20118;-48
2021/07/15 14:20:26;;;;;;;2.65;0.68;;;;;;;;;;5072297;28;20048;-48
2021/07/15 14:22:52;;;;;;;0.75;0.50;;;;;;;;;;5070343;28;20040;-50
2021/07/15 14:25:18;;;;;;;0.70;0.60;;;;;;;;;;5070937;28;20042;-48
2021/07/15 14:27:46;;;;;;;1.63;0.77;;;;;;;;;;5071919;28;20029;-50
2021/07/15 14:30:12;;;;;;;0.90;0.55;;;;;;;;;;5069795;28;20551;-49
2021/07/15 14:32:38;;;;;;;0.65;0.50;;;;;;;;;;5072171;28;20020;-50
2021/07/15 14:35:07;;;;;;;0.80;0.50;;;;;;;;;;5071926;28;20468;-51
2021/07/15 14:37:33;;;;;;;1.77;0.43;;;;;;;;;;5066542;28;20498;-48
2021/07/15 14:39:59;;;;;;;0.80;0.40;;;;;;;;;;5071603;28;20103;-49
2021/07/15 14:42:25;;;;;;;2.67;0.57;;;;;;;;;;5072051;28;20025;-49
2021/07/15 14:44:51;;;;;;;2.50;0.50;;;;;;;;;;5072078;28;20035;-48
2021/07/15 14:47:17;;;;;;;0.77;0.55;;;;;;;;;;5071109;28;20031;-48
2021/07/15 14:49:43;;;;;;;1.02;0.50;;;;;;;;;;5071718;28;20107;-49
2021/07/15 14:52:09;;;;;;;1.20;0.70;;;;;;;;;;5071655;28;20029;-48